sensor_id;sensor_type;location;lat;lon;timestamp;P1;durP1;ratioP1;P2;durP2;ratioP2
65047;SDS011;52089;51.362;-2.384;2022-11-20T00:01:28;11.50;;;4.93;;
65047;SDS011;52089;51.362;-2.384;2022-11-20T00:05:11;12.07;;;5.13;;
65047;SDS011;52089;51.362;-2.384;2022-11-20T00:08:56;11.60;;;5.70;;
65047;SDS011;52089;51.362;-2.384;2022-11-20T00:12:39;10.20;;;5.63;;
65047;SDS011;52089;51.362;-2.384;2022-11-20T00:16:22;11.10;;;5.60;;
65047;SDS011;52089;51.362;-2.384;2022-11-20T00:20:05;8.40;;;5.00;;
65047;SDS011;52089;51.362;-2.384;2022-11-20T00:23:48;10.30;;;5.47;;
65047;SDS011;52089;51.362;-2.384;2022-11-20T00:27:30;8.47;;;6.03;;
65047;SDS011;52089;51.362;-2.384;2022-11-20T00:31:13;12.77;;;6.27;;
65047;SDS011;52089;51.362;-2.384;2022-11-20T00:34:56;12.43;;;5.67;;
65047;SDS011;52089;51.362;-2.384;2022-11-20T00:38:38;11.70;;;5.93;;
65047;SDS011;52089;51.362;-2.384;2022-11-20T00:42:20;9.63;;;4.93;;
65047;SDS011;52089;51.362;-2.384;2022-11-20T00:46:02;9.33;;;5.03;;
65047;SDS011;52089;51.362;-2.384;2022-11-20T00:49:46;9.70;;;5.50;;
65047;SDS011;52089;51.362;-2.384;2022-11-20T00:53:28;9.23;;;5.00;;
65047;SDS011;52089;51.362;-2.384;2022-11-20T00:57:14;9.10;;;5.47;;
65047;SDS011;52089;51.362;-2.384;2022-11-20T01:01:06;10.93;;;5.40;;
65047;SDS011;52089;51.362;-2.384;2022-11-20T01:04:49;7.90;;;5.10;;
65047;SDS011;52089;51.362;-2.384;2022-11-20T01:08:31;11.73;;;6.10;;
65047;SDS011;52089;51.362;-2.384;2022-11-20T01:12:14;10.00;;;5.50;;
65047;SDS011;52089;51.362;-2.384;2022-11-20T01:16:01;10.00;;;6.37;;
65047;SDS011;52089;51.362;-2.384;2022-11-20T01:19:43;17.53;;;6.90;;
65047;SDS011;52089;51.362;-2.384;2022-11-20T01:23:25;12.63;;;6.43;;
65047;SDS011;52089;51.362;-2.384;2022-11-20T01:27:07;7.47;;;5.50;;
65047;SDS011;52089;51.362;-2.384;2022-11-20T01:30:49;8.40;;;5.57;;
65047;SDS011;52089;51.362;-2.384;2022-11-20T01:34:31;9.07;;;5.80;;
65047;SDS011;52089;51.362;-2.384;2022-11-20T01:38:12;12.60;;;6.07;;
65047;SDS011;52089;51.362;-2.384;2022-11-20T01:41:55;8.20;;;5.50;;
65047;SDS011;52089;51.362;-2.384;2022-11-20T01:50:04;8.83;;;5.70;;
65047;SDS011;52089;51.362;-2.384;2022-11-20T01:53:54;8.00;;;5.33;;
65047;SDS011;52089;51.362;-2.384;2022-11-20T01:57:38;7.50;;;5.83;;
65047;SDS011;52089;51.362;-2.384;2022-11-20T02:01:22;9.10;;;6.27;;
65047;SDS011;52089;51.362;-2.384;2022-11-20T02:05:08;12.73;;;7.00;;
65047;SDS011;52089;51.362;-2.384;2022-11-20T02:08:59;13.20;;;6.00;;
65047;SDS011;52089;51.362;-2.384;2022-11-20T02:12:41;16.23;;;6.23;;
65047;SDS011;52089;51.362;-2.384;2022-11-20T02:16:45;19.77;;;5.38;;
65047;SDS011;52089;51.362;-2.384;2022-11-20T02:20:28;12.30;;;5.33;;
65047;SDS011;52089;51.362;-2.384;2022-11-20T02:24:19;11.70;;;5.60;;
65047;SDS011;52089;51.362;-2.384;2022-11-20T02:28:03;14.87;;;4.83;;
65047;SDS011;52089;51.362;-2.384;2022-11-20T02:31:45;11.27;;;5.10;;
65047;SDS011;52089;51.362;-2.384;2022-11-20T02:39:10;6.97;;;4.37;;
65047;SDS011;52089;51.362;-2.384;2022-11-20T02:42:54;13.77;;;4.57;;
65047;SDS011;52089;51.362;-2.384;2022-11-20T02:46:37;13.63;;;4.30;;
65047;SDS011;52089;51.362;-2.384;2022-11-20T02:50:19;4.97;;;3.80;;
65047;SDS011;52089;51.362;-2.384;2022-11-20T02:54:01;10.03;;;3.80;;
65047;SDS011;52089;51.362;-2.384;2022-11-20T02:57:43;4.87;;;2.90;;
65047;SDS011;52089;51.362;-2.384;2022-11-20T03:01:25;3.93;;;2.83;;
65047;SDS011;52089;51.362;-2.384;2022-11-20T03:05:07;3.23;;;2.60;;
65047;SDS011;52089;51.362;-2.384;2022-11-20T03:08:49;4.50;;;2.43;;
65047;SDS011;52089;51.362;-2.384;2022-11-20T03:12:31;4.07;;;2.33;;
65047;SDS011;52089;51.362;-2.384;2022-11-20T03:16:13;2.40;;;1.90;;
65047;SDS011;52089;51.362;-2.384;2022-11-20T03:19:57;2.23;;;1.47;;
65047;SDS011;52089;51.362;-2.384;2022-11-20T03:23:39;1.80;;;1.10;;
65047;SDS011;52089;51.362;-2.384;2022-11-20T03:27:21;1.00;;;0.80;;
65047;SDS011;52089;51.362;-2.384;2022-11-20T03:31:07;2.00;;;1.07;;
65047;SDS011;52089;51.362;-2.384;2022-11-20T03:34:53;1.33;;;0.70;;
65047;SDS011;52089;51.362;-2.384;2022-11-20T03:38:35;1.53;;;0.63;;
65047;SDS011;52089;51.362;-2.384;2022-11-20T03:42:17;1.17;;;0.50;;
65047;SDS011;52089;51.362;-2.384;2022-11-20T03:46:17;0.60;;;0.43;;
65047;SDS011;52089;51.362;-2.384;2022-11-20T03:53:58;0.40;;;0.30;;
65047;SDS011;52089;51.362;-2.384;2022-11-20T03:57:41;0.40;;;0.27;;
65047;SDS011;52089;51.362;-2.384;2022-11-20T04:01:24;1.13;;;0.20;;
65047;SDS011;52089;51.362;-2.384;2022-11-20T04:05:07;0.33;;;0.30;;
65047;SDS011;52089;51.362;-2.384;2022-11-20T04:08:49;0.60;;;0.40;;
65047;SDS011;52089;51.362;-2.384;2022-11-20T04:12:34;0.20;;;0.20;;
65047;SDS011;52089;51.362;-2.384;2022-11-20T04:16:16;0.60;;;0.40;;
65047;SDS011;52089;51.362;-2.384;2022-11-20T04:19:58;1.57;;;0.30;;
65047;SDS011;52089;51.362;-2.384;2022-11-20T04:23:40;1.47;;;0.47;;
65047;SDS011;52089;51.362;-2.384;2022-11-20T04:27:21;1.60;;;0.63;;
65047;SDS011;52089;51.362;-2.384;2022-11-20T04:31:07;1.13;;;0.63;;
65047;SDS011;52089;51.362;-2.384;2022-11-20T04:34:51;4.33;;;0.73;;
65047;SDS011;52089;51.362;-2.384;2022-11-20T04:38:32;1.00;;;0.70;;
65047;SDS011;52089;51.362;-2.384;2022-11-20T04:42:14;1.83;;;0.93;;
65047;SDS011;52089;51.362;-2.384;2022-11-20T04:46:12;1.33;;;0.60;;
65047;SDS011;52089;51.362;-2.384;2022-11-20T04:49:53;2.73;;;0.67;;
65047;SDS011;52089;51.362;-2.384;2022-11-20T04:53:35;1.40;;;0.70;;
65047;SDS011;52089;51.362;-2.384;2022-11-20T04:57:17;0.60;;;0.40;;
65047;SDS011;52089;51.362;-2.384;2022-11-20T05:01:02;1.40;;;0.30;;
65047;SDS011;52089;51.362;-2.384;2022-11-20T05:04:45;0.93;;;0.40;;
65047;SDS011;52089;51.362;-2.384;2022-11-20T05:08:28;2.20;;;0.50;;
65047;SDS011;52089;51.362;-2.384;2022-11-20T05:12:10;1.60;;;0.40;;
65047;SDS011;52089;51.362;-2.384;2022-11-20T05:15:52;3.40;;;0.67;;
65047;SDS011;52089;51.362;-2.384;2022-11-20T05:19:34;3.63;;;0.60;;
65047;SDS011;52089;51.362;-2.384;2022-11-20T05:23:15;3.07;;;0.70;;
65047;SDS011;52089;51.362;-2.384;2022-11-20T05:26:57;6.67;;;0.83;;
65047;SDS011;52089;51.362;-2.384;2022-11-20T05:30:39;6.57;;;0.97;;
65047;SDS011;52089;51.362;-2.384;2022-11-20T05:34:20;6.07;;;0.90;;
65047;SDS011;52089;51.362;-2.384;2022-11-20T05:38:02;5.07;;;0.70;;
65047;SDS011;52089;51.362;-2.384;2022-11-20T05:41:44;3.13;;;0.80;;
65047;SDS011;52089;51.362;-2.384;2022-11-20T05:45:26;5.90;;;1.03;;
65047;SDS011;52089;51.362;-2.384;2022-11-20T05:49:08;4.77;;;0.93;;
65047;SDS011;52089;51.362;-2.384;2022-11-20T05:52:49;6.13;;;0.83;;
65047;SDS011;52089;51.362;-2.384;2022-11-20T05:56:31;3.27;;;0.80;;
65047;SDS011;52089;51.362;-2.384;2022-11-20T06:00:13;4.50;;;0.90;;
65047;SDS011;52089;51.362;-2.384;2022-11-20T06:03:56;5.40;;;0.90;;
65047;SDS011;52089;51.362;-2.384;2022-11-20T06:07:37;4.87;;;1.20;;
65047;SDS011;52089;51.362;-2.384;2022-11-20T06:11:19;5.97;;;1.30;;
65047;SDS011;52089;51.362;-2.384;2022-11-20T06:15:01;8.10;;;1.57;;
65047;SDS011;52089;51.362;-2.384;2022-11-20T06:18:44;7.83;;;1.43;;
65047;SDS011;52089;51.362;-2.384;2022-11-20T06:22:27;10.67;;;2.43;;
65047;SDS011;52089;51.362;-2.384;2022-11-20T06:26:10;11.90;;;1.60;;
65047;SDS011;52089;51.362;-2.384;2022-11-20T06:29:56;8.60;;;1.87;;
65047;SDS011;52089;51.362;-2.384;2022-11-20T06:33:38;10.47;;;1.60;;
65047;SDS011;52089;51.362;-2.384;2022-11-20T06:37:20;11.27;;;2.60;;
65047;SDS011;52089;51.362;-2.384;2022-11-20T06:41:02;16.57;;;2.47;;
65047;SDS011;52089;51.362;-2.384;2022-11-20T06:44:45;19.97;;;1.87;;
65047;SDS011;52089;51.362;-2.384;2022-11-20T06:48:27;10.60;;;1.70;;
65047;SDS011;52089;51.362;-2.384;2022-11-20T06:52:10;7.40;;;1.63;;
65047;SDS011;52089;51.362;-2.384;2022-11-20T06:55:51;11.47;;;1.83;;
65047;SDS011;52089;51.362;-2.384;2022-11-20T06:59:36;11.70;;;1.73;;
65047;SDS011;52089;51.362;-2.384;2022-11-20T07:03:18;12.30;;;1.90;;
65047;SDS011;52089;51.362;-2.384;2022-11-20T07:07:00;11.67;;;1.80;;
65047;SDS011;52089;51.362;-2.384;2022-11-20T07:10:42;16.60;;;2.30;;
65047;SDS011;52089;51.362;-2.384;2022-11-20T07:14:23;13.53;;;2.30;;
65047;SDS011;52089;51.362;-2.384;2022-11-20T07:18:05;16.90;;;1.90;;
65047;SDS011;52089;51.362;-2.384;2022-11-20T07:21:47;15.47;;;2.60;;
65047;SDS011;52089;51.362;-2.384;2022-11-20T07:25:28;13.60;;;1.87;;
65047;SDS011;52089;51.362;-2.384;2022-11-20T07:29:11;13.43;;;2.53;;
65047;SDS011;52089;51.362;-2.384;2022-11-20T07:32:54;13.63;;;2.20;;
65047;SDS011;52089;51.362;-2.384;2022-11-20T07:36:37;16.83;;;2.40;;
65047;SDS011;52089;51.362;-2.384;2022-11-20T07:40:21;12.47;;;1.87;;
65047;SDS011;52089;51.362;-2.384;2022-11-20T07:44:03;10.57;;;2.13;;
65047;SDS011;52089;51.362;-2.384;2022-11-20T07:47:45;16.47;;;2.60;;
65047;SDS011;52089;51.362;-2.384;2022-11-20T07:51:27;15.13;;;2.60;;
65047;SDS011;52089;51.362;-2.384;2022-11-20T07:55:09;16.47;;;2.40;;
65047;SDS011;52089;51.362;-2.384;2022-11-20T07:58:52;13.37;;;1.93;;
65047;SDS011;52089;51.362;-2.384;2022-11-20T08:02:33;19.80;;;2.80;;
65047;SDS011;52089;51.362;-2.384;2022-11-20T08:06:17;19.30;;;2.70;;
65047;SDS011;52089;51.362;-2.384;2022-11-20T08:10:00;24.93;;;2.50;;
65047;SDS011;52089;51.362;-2.384;2022-11-20T08:13:42;20.83;;;3.40;;
65047;SDS011;52089;51.362;-2.384;2022-11-20T08:17:43;18.25;;;2.45;;
65047;SDS011;52089;51.362;-2.384;2022-11-20T08:21:44;15.07;;;2.93;;
65047;SDS011;52089;51.362;-2.384;2022-11-20T08:25:27;19.83;;;2.80;;
65047;SDS011;52089;51.362;-2.384;2022-11-20T08:29:10;16.50;;;3.07;;
65047;SDS011;52089;51.362;-2.384;2022-11-20T08:32:52;18.57;;;2.97;;
65047;SDS011;52089;51.362;-2.384;2022-11-20T08:36:34;16.57;;;2.33;;
65047;SDS011;52089;51.362;-2.384;2022-11-20T08:40:17;21.83;;;3.57;;
65047;SDS011;52089;51.362;-2.384;2022-11-20T08:44:00;22.60;;;3.37;;
65047;SDS011;52089;51.362;-2.384;2022-11-20T08:47:44;18.57;;;2.87;;
65047;SDS011;52089;51.362;-2.384;2022-11-20T08:51:27;21.43;;;2.73;;
65047;SDS011;52089;51.362;-2.384;2022-11-20T08:55:09;19.13;;;2.73;;
65047;SDS011;52089;51.362;-2.384;2022-11-20T08:58:51;22.80;;;3.83;;
65047;SDS011;52089;51.362;-2.384;2022-11-20T09:02:53;24.57;;;3.53;;
65047;SDS011;52089;51.362;-2.384;2022-11-20T09:06:35;29.17;;;3.60;;
65047;SDS011;52089;51.362;-2.384;2022-11-20T09:10:17;27.57;;;3.90;;
65047;SDS011;52089;51.362;-2.384;2022-11-20T09:14:06;31.30;;;4.07;;
65047;SDS011;52089;51.362;-2.384;2022-11-20T09:17:58;33.40;;;4.93;;
65047;SDS011;52089;51.362;-2.384;2022-11-20T09:21:41;42.70;;;5.93;;
65047;SDS011;52089;51.362;-2.384;2022-11-20T09:25:23;42.73;;;10.70;;
65047;SDS011;52089;51.362;-2.384;2022-11-20T09:29:05;41.97;;;8.77;;
65047;SDS011;52089;51.362;-2.384;2022-11-20T09:32:47;33.57;;;5.07;;
65047;SDS011;52089;51.362;-2.384;2022-11-20T09:36:28;39.93;;;4.93;;
65047;SDS011;52089;51.362;-2.384;2022-11-20T09:40:17;34.37;;;6.13;;
65047;SDS011;52089;51.362;-2.384;2022-11-20T09:44:10;31.90;;;5.37;;
65047;SDS011;52089;51.362;-2.384;2022-11-20T09:56:03;31.97;;;4.60;;
65047;SDS011;52089;51.362;-2.384;2022-11-20T09:59:46;35.23;;;6.33;;
65047;SDS011;52089;51.362;-2.384;2022-11-20T10:08:41;29.97;;;3.77;;
65047;SDS011;52089;51.362;-2.384;2022-11-20T10:32:42;14.93;;;5.03;;
65047;SDS011;52089;51.362;-2.384;2022-11-20T10:36:27;15.73;;;2.83;;
65047;SDS011;52089;51.362;-2.384;2022-11-20T10:40:19;12.97;;;2.40;;
65047;SDS011;52089;51.362;-2.384;2022-11-20T10:48:26;10.43;;;2.30;;
65047;SDS011;52089;51.362;-2.384;2022-11-20T10:57:10;18.80;;;2.20;;
65047;SDS011;52089;51.362;-2.384;2022-11-20T11:00:34;12.47;;;2.20;;
65047;SDS011;52089;51.362;-2.384;2022-11-20T11:08:14;11.10;;;2.43;;
65047;SDS011;52089;51.362;-2.384;2022-11-20T11:11:57;9.03;;;2.17;;
65047;SDS011;52089;51.362;-2.384;2022-11-20T11:15:47;9.40;;;2.03;;
65047;SDS011;52089;51.362;-2.384;2022-11-20T11:19:28;11.50;;;2.70;;
65047;SDS011;52089;51.362;-2.384;2022-11-20T11:23:22;9.47;;;2.37;;
65047;SDS011;52089;51.362;-2.384;2022-11-20T11:27:12;10.60;;;2.03;;
65047;SDS011;52089;51.362;-2.384;2022-11-20T11:30:58;11.90;;;2.03;;
65047;SDS011;52089;51.362;-2.384;2022-11-20T11:34:39;9.47;;;2.10;;
65047;SDS011;52089;51.362;-2.384;2022-11-20T11:38:23;7.50;;;1.97;;
65047;SDS011;52089;51.362;-2.384;2022-11-20T11:42:22;12.23;;;2.00;;
65047;SDS011;52089;51.362;-2.384;2022-11-20T11:46:05;11.45;;;2.17;;
65047;SDS011;52089;51.362;-2.384;2022-11-20T11:53:53;11.50;;;1.98;;
65047;SDS011;52089;51.362;-2.384;2022-11-20T11:57:44;11.60;;;2.20;;
65047;SDS011;52089;51.362;-2.384;2022-11-20T12:01:44;9.87;;;2.17;;
65047;SDS011;52089;51.362;-2.384;2022-11-20T12:05:38;11.20;;;1.97;;
65047;SDS011;52089;51.362;-2.384;2022-11-20T12:09:24;12.70;;;1.90;;
65047;SDS011;52089;51.362;-2.384;2022-11-20T12:13:17;9.57;;;2.00;;
65047;SDS011;52089;51.362;-2.384;2022-11-20T12:17:02;10.87;;;2.13;;
65047;SDS011;52089;51.362;-2.384;2022-11-20T12:28:40;16.97;;;4.70;;
65047;SDS011;52089;51.362;-2.384;2022-11-20T12:36:56;13.63;;;3.10;;
65047;SDS011;52089;51.362;-2.384;2022-11-20T13:01:56;11.37;;;1.17;;
65047;SDS011;52089;51.362;-2.384;2022-11-20T13:09:55;8.57;;;1.10;;
65047;SDS011;52089;51.362;-2.384;2022-11-20T13:21:39;8.10;;;1.00;;
65047;SDS011;52089;51.362;-2.384;2022-11-20T13:25:34;6.13;;;1.00;;
65047;SDS011;52089;51.362;-2.384;2022-11-20T13:29:17;6.57;;;1.00;;
65047;SDS011;52089;51.362;-2.384;2022-11-20T13:33:07;8.10;;;1.13;;
65047;SDS011;52089;51.362;-2.384;2022-11-20T13:36:51;6.75;;;1.20;;
65047;SDS011;52089;51.362;-2.384;2022-11-20T13:40:38;6.20;;;0.70;;
65047;SDS011;52089;51.362;-2.384;2022-11-20T13:44:38;8.55;;;1.00;;
65047;SDS011;52089;51.362;-2.384;2022-11-20T13:48:24;5.33;;;0.83;;
65047;SDS011;52089;51.362;-2.384;2022-11-20T14:04:07;3.67;;;0.90;;
65047;SDS011;52089;51.362;-2.384;2022-11-20T14:07:52;4.17;;;0.93;;
65047;SDS011;52089;51.362;-2.384;2022-11-20T14:11:46;6.13;;;0.60;;
65047;SDS011;52089;51.362;-2.384;2022-11-20T14:15:36;5.33;;;0.90;;
65047;SDS011;52089;51.362;-2.384;2022-11-20T14:19:28;4.30;;;0.60;;
65047;SDS011;52089;51.362;-2.384;2022-11-20T14:23:22;2.17;;;0.40;;
65047;SDS011;52089;51.362;-2.384;2022-11-20T14:27:12;2.87;;;0.50;;
65047;SDS011;52089;51.362;-2.384;2022-11-20T14:30:59;3.93;;;0.60;;
65047;SDS011;52089;51.362;-2.384;2022-11-20T14:34:41;2.87;;;0.50;;
65047;SDS011;52089;51.362;-2.384;2022-11-20T14:38:28;4.27;;;0.47;;
65047;SDS011;52089;51.362;-2.384;2022-11-20T14:42:46;3.43;;;0.40;;
65047;SDS011;52089;51.362;-2.384;2022-11-20T14:46:24;5.10;;;0.70;;
65047;SDS011;52089;51.362;-2.384;2022-11-20T14:50:17;3.60;;;0.60;;
65047;SDS011;52089;51.362;-2.384;2022-11-20T14:54:15;6.47;;;1.07;;
65047;SDS011;52089;51.362;-2.384;2022-11-20T14:58:00;6.63;;;1.00;;
65047;SDS011;52089;51.362;-2.384;2022-11-20T15:01:53;9.07;;;0.93;;
65047;SDS011;52089;51.362;-2.384;2022-11-20T15:05:45;8.37;;;1.50;;
65047;SDS011;52089;51.362;-2.384;2022-11-20T15:09:29;9.20;;;0.87;;
65047;SDS011;52089;51.362;-2.384;2022-11-20T15:13:12;11.53;;;2.20;;
65047;SDS011;52089;51.362;-2.384;2022-11-20T15:16:57;13.43;;;2.10;;
65047;SDS011;52089;51.362;-2.384;2022-11-20T15:20:40;8.50;;;1.70;;
65047;SDS011;52089;51.362;-2.384;2022-11-20T15:24:23;7.07;;;1.20;;
65047;SDS011;52089;51.362;-2.384;2022-11-20T15:28:08;10.30;;;1.20;;
65047;SDS011;52089;51.362;-2.384;2022-11-20T15:31:58;9.33;;;1.73;;
65047;SDS011;52089;51.362;-2.384;2022-11-20T15:35:40;8.87;;;1.17;;
65047;SDS011;52089;51.362;-2.384;2022-11-20T15:39:22;4.77;;;1.17;;
65047;SDS011;52089;51.362;-2.384;2022-11-20T15:43:04;6.67;;;1.50;;
65047;SDS011;52089;51.362;-2.384;2022-11-20T15:46:53;6.13;;;1.30;;
65047;SDS011;52089;51.362;-2.384;2022-11-20T15:50:41;7.20;;;0.80;;
65047;SDS011;52089;51.362;-2.384;2022-11-20T15:54:31;5.53;;;0.70;;
65047;SDS011;52089;51.362;-2.384;2022-11-20T15:58:13;5.33;;;0.73;;
65047;SDS011;52089;51.362;-2.384;2022-11-20T16:01:55;7.13;;;0.80;;
65047;SDS011;52089;51.362;-2.384;2022-11-20T16:05:37;4.67;;;1.47;;
65047;SDS011;52089;51.362;-2.384;2022-11-20T16:09:19;3.97;;;0.63;;
65047;SDS011;52089;51.362;-2.384;2022-11-20T16:13:01;4.73;;;0.60;;
65047;SDS011;52089;51.362;-2.384;2022-11-20T16:17:02;6.50;;;0.80;;
65047;SDS011;52089;51.362;-2.384;2022-11-20T16:20:45;5.13;;;0.93;;
65047;SDS011;52089;51.362;-2.384;2022-11-20T16:24:28;6.37;;;1.20;;
65047;SDS011;52089;51.362;-2.384;2022-11-20T16:28:10;4.20;;;0.77;;
65047;SDS011;52089;51.362;-2.384;2022-11-20T16:31:59;4.53;;;0.80;;
65047;SDS011;52089;51.362;-2.384;2022-11-20T16:35:40;7.10;;;1.00;;
65047;SDS011;52089;51.362;-2.384;2022-11-20T16:39:22;4.70;;;1.00;;
65047;SDS011;52089;51.362;-2.384;2022-11-20T16:43:09;7.17;;;1.43;;
65047;SDS011;52089;51.362;-2.384;2022-11-20T16:46:54;6.53;;;1.23;;
65047;SDS011;52089;51.362;-2.384;2022-11-20T16:50:36;6.33;;;1.00;;
65047;SDS011;52089;51.362;-2.384;2022-11-20T16:54:18;4.30;;;0.90;;
65047;SDS011;52089;51.362;-2.384;2022-11-20T16:58:04;7.97;;;0.90;;
65047;SDS011;52089;51.362;-2.384;2022-11-20T17:01:49;5.00;;;0.77;;
65047;SDS011;52089;51.362;-2.384;2022-11-20T17:05:32;6.63;;;1.10;;
65047;SDS011;52089;51.362;-2.384;2022-11-20T17:09:14;4.10;;;0.70;;
65047;SDS011;52089;51.362;-2.384;2022-11-20T17:12:56;6.03;;;1.30;;
65047;SDS011;52089;51.362;-2.384;2022-11-20T17:16:44;5.17;;;0.90;;
65047;SDS011;52089;51.362;-2.384;2022-11-20T17:20:29;3.77;;;0.73;;
65047;SDS011;52089;51.362;-2.384;2022-11-20T17:24:26;6.43;;;1.00;;
65047;SDS011;52089;51.362;-2.384;2022-11-20T17:28:12;5.63;;;1.50;;
65047;SDS011;52089;51.362;-2.384;2022-11-20T17:31:54;5.07;;;1.13;;
65047;SDS011;52089;51.362;-2.384;2022-11-20T17:35:35;10.17;;;1.03;;
65047;SDS011;52089;51.362;-2.384;2022-11-20T17:39:20;8.50;;;1.10;;
65047;SDS011;52089;51.362;-2.384;2022-11-20T17:43:02;5.23;;;0.93;;
65047;SDS011;52089;51.362;-2.384;2022-11-20T17:46:43;10.00;;;1.70;;
65047;SDS011;52089;51.362;-2.384;2022-11-20T17:50:25;5.20;;;1.30;;
65047;SDS011;52089;51.362;-2.384;2022-11-20T17:54:07;8.33;;;1.23;;
65047;SDS011;52089;51.362;-2.384;2022-11-20T17:57:50;7.23;;;1.60;;
65047;SDS011;52089;51.362;-2.384;2022-11-20T18:01:32;8.97;;;2.20;;
65047;SDS011;52089;51.362;-2.384;2022-11-20T18:05:14;6.83;;;1.20;;
65047;SDS011;52089;51.362;-2.384;2022-11-20T18:08:57;9.33;;;1.30;;
65047;SDS011;52089;51.362;-2.384;2022-11-20T18:12:40;6.20;;;1.47;;
65047;SDS011;52089;51.362;-2.384;2022-11-20T18:16:22;6.27;;;1.90;;
65047;SDS011;52089;51.362;-2.384;2022-11-20T18:20:04;9.57;;;2.20;;
65047;SDS011;52089;51.362;-2.384;2022-11-20T18:24:07;12.37;;;2.93;;
65047;SDS011;52089;51.362;-2.384;2022-11-20T18:27:49;13.20;;;3.03;;
65047;SDS011;52089;51.362;-2.384;2022-11-20T18:31:33;10.57;;;2.80;;
65047;SDS011;52089;51.362;-2.384;2022-11-20T18:35:15;7.10;;;1.63;;
65047;SDS011;52089;51.362;-2.384;2022-11-20T18:38:58;11.40;;;2.10;;
65047;SDS011;52089;51.362;-2.384;2022-11-20T18:42:41;13.43;;;4.60;;
65047;SDS011;52089;51.362;-2.384;2022-11-20T18:46:42;11.77;;;2.60;;
65047;SDS011;52089;51.362;-2.384;2022-11-20T18:50:24;12.47;;;3.37;;
65047;SDS011;52089;51.362;-2.384;2022-11-20T18:54:05;10.00;;;2.17;;
65047;SDS011;52089;51.362;-2.384;2022-11-20T18:57:47;10.60;;;2.17;;
65047;SDS011;52089;51.362;-2.384;2022-11-20T19:01:29;12.47;;;3.10;;
65047;SDS011;52089;51.362;-2.384;2022-11-20T19:05:12;11.33;;;1.80;;
65047;SDS011;52089;51.362;-2.384;2022-11-20T19:08:54;13.37;;;2.63;;
65047;SDS011;52089;51.362;-2.384;2022-11-20T19:12:36;14.97;;;3.33;;
65047;SDS011;52089;51.362;-2.384;2022-11-20T19:16:19;10.07;;;2.67;;
65047;SDS011;52089;51.362;-2.384;2022-11-20T19:20:02;13.20;;;2.50;;
65047;SDS011;52089;51.362;-2.384;2022-11-20T19:23:47;14.50;;;2.67;;
65047;SDS011;52089;51.362;-2.384;2022-11-20T19:27:36;14.70;;;2.50;;
65047;SDS011;52089;51.362;-2.384;2022-11-20T19:31:22;11.20;;;2.50;;
65047;SDS011;52089;51.362;-2.384;2022-11-20T19:35:07;29.13;;;15.93;;
65047;SDS011;52089;51.362;-2.384;2022-11-20T19:38:49;14.80;;;4.17;;
65047;SDS011;52089;51.362;-2.384;2022-11-20T19:42:31;17.97;;;3.43;;
65047;SDS011;52089;51.362;-2.384;2022-11-20T19:46:13;12.97;;;2.97;;
65047;SDS011;52089;51.362;-2.384;2022-11-20T19:49:56;12.20;;;2.80;;
65047;SDS011;52089;51.362;-2.384;2022-11-20T19:53:37;10.93;;;3.23;;
65047;SDS011;52089;51.362;-2.384;2022-11-20T19:57:19;13.17;;;2.43;;
65047;SDS011;52089;51.362;-2.384;2022-11-20T20:01:20;9.10;;;2.03;;
65047;SDS011;52089;51.362;-2.384;2022-11-20T20:05:04;16.87;;;2.90;;
65047;SDS011;52089;51.362;-2.384;2022-11-20T20:08:46;9.90;;;2.17;;
65047;SDS011;52089;51.362;-2.384;2022-11-20T20:12:34;12.63;;;2.33;;
65047;SDS011;52089;51.362;-2.384;2022-11-20T20:16:19;7.93;;;1.93;;
65047;SDS011;52089;51.362;-2.384;2022-11-20T20:20:03;7.97;;;2.30;;
65047;SDS011;52089;51.362;-2.384;2022-11-20T20:23:45;9.20;;;2.20;;
65047;SDS011;52089;51.362;-2.384;2022-11-20T20:27:31;15.10;;;3.03;;
65047;SDS011;52089;51.362;-2.384;2022-11-20T20:31:14;10.20;;;3.20;;
65047;SDS011;52089;51.362;-2.384;2022-11-20T20:34:58;13.00;;;3.17;;
65047;SDS011;52089;51.362;-2.384;2022-11-20T20:38:40;13.30;;;2.70;;
65047;SDS011;52089;51.362;-2.384;2022-11-20T20:42:23;10.37;;;3.40;;
65047;SDS011;52089;51.362;-2.384;2022-11-20T20:46:06;12.07;;;3.40;;
65047;SDS011;52089;51.362;-2.384;2022-11-20T20:49:48;11.63;;;2.87;;
65047;SDS011;52089;51.362;-2.384;2022-11-20T20:53:29;8.80;;;2.83;;
65047;SDS011;52089;51.362;-2.384;2022-11-20T20:57:11;11.73;;;3.20;;
65047;SDS011;52089;51.362;-2.384;2022-11-20T21:00:53;13.50;;;3.70;;
65047;SDS011;52089;51.362;-2.384;2022-11-20T21:04:35;10.70;;;3.27;;
65047;SDS011;52089;51.362;-2.384;2022-11-20T21:08:17;10.30;;;2.77;;
65047;SDS011;52089;51.362;-2.384;2022-11-20T21:12:02;14.73;;;3.87;;
65047;SDS011;52089;51.362;-2.384;2022-11-20T21:15:48;14.17;;;3.03;;
65047;SDS011;52089;51.362;-2.384;2022-11-20T21:19:31;12.40;;;2.27;;
65047;SDS011;52089;51.362;-2.384;2022-11-20T21:23:13;9.90;;;2.20;;
65047;SDS011;52089;51.362;-2.384;2022-11-20T21:26:55;7.10;;;1.97;;
65047;SDS011;52089;51.362;-2.384;2022-11-20T21:30:38;8.30;;;2.07;;
65047;SDS011;52089;51.362;-2.384;2022-11-20T21:34:19;12.73;;;2.50;;
65047;SDS011;52089;51.362;-2.384;2022-11-20T21:38:03;8.33;;;1.67;;
65047;SDS011;52089;51.362;-2.384;2022-11-20T21:41:45;10.20;;;1.87;;
65047;SDS011;52089;51.362;-2.384;2022-11-20T21:45:26;11.03;;;2.30;;
65047;SDS011;52089;51.362;-2.384;2022-11-20T21:49:09;14.87;;;2.13;;
65047;SDS011;52089;51.362;-2.384;2022-11-20T21:52:51;11.33;;;2.40;;
65047;SDS011;52089;51.362;-2.384;2022-11-20T21:56:33;9.90;;;2.13;;
65047;SDS011;52089;51.362;-2.384;2022-11-20T22:00:15;13.13;;;2.97;;
65047;SDS011;52089;51.362;-2.384;2022-11-20T22:04:00;11.80;;;2.20;;
65047;SDS011;52089;51.362;-2.384;2022-11-20T22:07:43;18.10;;;6.93;;
65047;SDS011;52089;51.362;-2.384;2022-11-20T22:11:25;10.97;;;3.53;;
65047;SDS011;52089;51.362;-2.384;2022-11-20T22:15:07;15.03;;;2.80;;
65047;SDS011;52089;51.362;-2.384;2022-11-20T22:18:50;8.63;;;2.23;;
65047;SDS011;52089;51.362;-2.384;2022-11-20T22:22:33;12.40;;;2.70;;
65047;SDS011;52089;51.362;-2.384;2022-11-20T22:26:15;12.67;;;2.60;;
65047;SDS011;52089;51.362;-2.384;2022-11-20T22:29:58;11.20;;;2.30;;
65047;SDS011;52089;51.362;-2.384;2022-11-20T22:33:40;15.57;;;3.50;;
65047;SDS011;52089;51.362;-2.384;2022-11-20T22:37:22;16.23;;;2.87;;
65047;SDS011;52089;51.362;-2.384;2022-11-20T22:41:04;16.90;;;2.43;;
65047;SDS011;52089;51.362;-2.384;2022-11-20T22:44:46;12.57;;;2.50;;
65047;SDS011;52089;51.362;-2.384;2022-11-20T22:48:28;17.17;;;2.30;;
65047;SDS011;52089;51.362;-2.384;2022-11-20T22:52:10;16.20;;;2.50;;
65047;SDS011;52089;51.362;-2.384;2022-11-20T22:55:52;13.70;;;2.20;;
65047;SDS011;52089;51.362;-2.384;2022-11-20T22:59:33;11.47;;;2.03;;
65047;SDS011;52089;51.362;-2.384;2022-11-20T23:03:15;14.80;;;2.93;;
65047;SDS011;52089;51.362;-2.384;2022-11-20T23:06:57;17.37;;;2.70;;
65047;SDS011;52089;51.362;-2.384;2022-11-20T23:10:39;13.97;;;3.00;;
65047;SDS011;52089;51.362;-2.384;2022-11-20T23:14:21;18.70;;;2.43;;
65047;SDS011;52089;51.362;-2.384;2022-11-20T23:18:08;16.77;;;2.50;;
65047;SDS011;52089;51.362;-2.384;2022-11-20T23:21:49;17.00;;;3.00;;
65047;SDS011;52089;51.362;-2.384;2022-11-20T23:25:31;15.27;;;2.50;;
65047;SDS011;52089;51.362;-2.384;2022-11-20T23:29:13;15.00;;;2.57;;
65047;SDS011;52089;51.362;-2.384;2022-11-20T23:32:55;17.63;;;3.00;;
65047;SDS011;52089;51.362;-2.384;2022-11-20T23:36:36;16.57;;;2.60;;
65047;SDS011;52089;51.362;-2.384;2022-11-20T23:40:18;16.70;;;2.50;;
65047;SDS011;52089;51.362;-2.384;2022-11-20T23:44:00;14.93;;;2.77;;
65047;SDS011;52089;51.362;-2.384;2022-11-20T23:47:41;12.63;;;2.20;;
65047;SDS011;52089;51.362;-2.384;2022-11-20T23:51:23;11.30;;;2.07;;
65047;SDS011;52089;51.362;-2.384;2022-11-20T23:55:05;15.53;;;2.27;;
65047;SDS011;52089;51.362;-2.384;2022-11-20T23:58:47;13.90;;;2.73;;
